createdAt,value
2018-10-03T00:00:08.206Z,3.80
2018-10-03T00:01:13.800Z,3.83
2018-10-03T00:02:19.316Z,4.00
2018-10-03T00:03:25.173Z,4.43
2018-10-03T00:04:30.657Z,3.93
2018-10-03T00:05:36.088Z,3.40
2018-10-03T00:06:41.565Z,3.50
2018-10-03T00:07:47.046Z,4.40
2018-10-03T00:08:52.669Z,4.57
2018-10-03T00:09:58.382Z,4.73
2018-10-03T00:11:03.840Z,3.93
2018-10-03T00:12:09.346Z,3.53
2018-10-03T00:13:14.863Z,4.20
2018-10-03T00:14:20.277Z,3.30
2018-10-03T00:15:26.017Z,3.33
2018-10-03T00:16:31.426Z,3.83
2018-10-03T00:17:36.925Z,3.17
2018-10-03T00:18:42.429Z,3.50
2018-10-03T00:19:47.897Z,4.00
2018-10-03T00:20:53.469Z,3.80
2018-10-03T00:21:58.966Z,3.97
2018-10-03T00:23:04.439Z,3.73
2018-10-03T00:24:09.902Z,4.10
2018-10-03T00:25:15.397Z,4.43
2018-10-03T00:26:20.857Z,3.63
2018-10-03T00:27:26.409Z,4.70
2018-10-03T00:28:31.940Z,4.50
2018-10-03T00:29:37.517Z,4.07
2018-10-03T00:30:42.921Z,3.70
2018-10-03T00:31:48.343Z,4.17
2018-10-03T00:32:53.925Z,4.77
2018-10-03T00:33:59.452Z,4.43
2018-10-03T00:35:05.301Z,3.47
2018-10-03T00:36:10.754Z,3.57
2018-10-03T00:37:16.268Z,4.03
2018-10-03T00:38:22.234Z,3.90
2018-10-03T00:39:27.900Z,3.90
2018-10-03T00:40:33.544Z,3.63
2018-10-03T00:41:39.645Z,4.60
2018-10-03T00:42:45.040Z,3.63
2018-10-03T00:43:50.506Z,3.83
2018-10-03T00:44:55.986Z,4.00
2018-10-03T00:46:01.531Z,3.87
2018-10-03T00:47:07.060Z,4.00
2018-10-03T00:48:12.659Z,3.87
2018-10-03T00:49:18.132Z,4.20
2018-10-03T00:50:23.733Z,3.93
2018-10-03T00:51:29.293Z,3.90
2018-10-03T00:52:34.748Z,3.53
2018-10-03T00:53:40.191Z,3.93
2018-10-03T00:54:45.711Z,5.33
2018-10-03T00:55:51.289Z,3.60
2018-10-03T00:56:56.795Z,3.90
2018-10-03T00:58:02.345Z,4.00
2018-10-03T00:59:07.905Z,3.40
2018-10-03T01:00:13.317Z,3.50
2018-10-03T01:01:18.780Z,4.30
2018-10-03T01:02:24.563Z,5.03
2018-10-03T01:03:30.068Z,3.77
2018-10-03T01:04:35.555Z,3.50
2018-10-03T01:05:41.411Z,4.30
2018-10-03T01:06:46.864Z,4.27
2018-10-03T01:07:52.509Z,3.40
2018-10-03T01:08:58.048Z,4.77
2018-10-03T01:10:03.878Z,3.50
2018-10-03T01:11:09.280Z,3.33
2018-10-03T01:12:14.729Z,3.50
2018-10-03T01:13:20.297Z,5.33
2018-10-03T01:14:25.968Z,4.87
2018-10-03T01:15:31.475Z,3.60
2018-10-03T01:16:36.914Z,4.03
2018-10-03T01:17:42.433Z,3.90
2018-10-03T01:18:48.122Z,4.77
2018-10-03T01:19:53.683Z,4.40
2018-10-03T01:20:59.153Z,3.67
2018-10-03T01:22:04.689Z,3.67
2018-10-03T01:23:10.145Z,3.97
2018-10-03T01:24:15.630Z,4.00
2018-10-03T01:25:21.132Z,3.67
2018-10-03T01:26:26.731Z,5.23
2018-10-03T01:27:32.236Z,3.70
2018-10-03T01:28:37.678Z,5.00
2018-10-03T01:29:43.209Z,3.60
2018-10-03T01:30:48.816Z,3.97
2018-10-03T01:31:54.550Z,4.60
2018-10-03T01:32:59.979Z,4.23
2018-10-03T01:34:05.418Z,4.53
2018-10-03T01:35:10.983Z,4.00
2018-10-03T01:36:16.521Z,3.43
2018-10-03T01:37:22.066Z,5.00
2018-10-03T01:38:27.730Z,4.20
2018-10-03T01:39:33.072Z,5.10
2018-10-03T01:40:38.613Z,4.00
2018-10-03T01:41:44.129Z,3.57
2018-10-03T01:42:49.633Z,4.10
2018-10-03T01:43:55.219Z,4.23
2018-10-03T01:45:00.652Z,4.83
2018-10-03T01:46:06.077Z,4.20
2018-10-03T01:47:11.545Z,3.93
2018-10-03T01:48:17.075Z,4.93
2018-10-03T01:49:22.516Z,4.30
2018-10-03T01:50:28.107Z,4.73
2018-10-03T01:51:33.539Z,3.33
2018-10-03T01:52:39.059Z,4.20
2018-10-03T01:53:44.554Z,4.57
2018-10-03T01:54:50.129Z,4.60
2018-10-03T01:55:55.784Z,3.93
2018-10-03T01:57:01.278Z,3.40
2018-10-03T01:58:06.781Z,3.53
2018-10-03T01:59:12.273Z,3.73
2018-10-03T02:00:17.714Z,3.63
2018-10-03T02:01:23.252Z,4.80
2018-10-03T02:02:28.915Z,3.40
2018-10-03T02:03:34.540Z,3.80
2018-10-03T02:04:40.088Z,4.07
2018-10-03T02:05:45.541Z,4.13
2018-10-03T02:06:51.130Z,4.10
2018-10-03T02:07:56.681Z,3.97
2018-10-03T02:09:02.144Z,6.17
2018-10-03T02:10:07.620Z,4.27
2018-10-03T02:11:13.157Z,3.33
2018-10-03T02:12:18.674Z,3.50
2018-10-03T02:13:24.309Z,3.80
2018-10-03T02:14:29.773Z,4.20
2018-10-03T02:15:35.176Z,4.10
2018-10-03T02:16:40.619Z,3.37
2018-10-03T02:17:46.072Z,5.57
2018-10-03T02:18:51.573Z,4.33
2018-10-03T02:19:57.086Z,4.30
2018-10-03T02:21:02.537Z,5.53
2018-10-03T02:22:07.989Z,3.57
2018-10-03T02:23:13.437Z,4.27
2018-10-03T02:24:18.932Z,4.33
2018-10-03T02:25:24.445Z,4.63
2018-10-03T02:26:29.845Z,3.77
2018-10-03T02:27:35.337Z,4.50
2018-10-03T02:28:40.905Z,4.27
2018-10-03T02:29:46.437Z,4.20
2018-10-03T02:30:52.100Z,4.20
2018-10-03T02:31:57.620Z,4.00
2018-10-03T02:33:03.153Z,3.97
2018-10-03T02:34:08.701Z,4.43
2018-10-03T02:35:14.153Z,3.70
2018-10-03T02:36:19.633Z,3.70
2018-10-03T02:37:25.211Z,3.80
2018-10-03T02:38:30.657Z,4.97
2018-10-03T02:39:36.203Z,4.33
2018-10-03T02:40:41.600Z,4.00
2018-10-03T02:41:47.044Z,3.77
2018-10-03T02:42:52.617Z,4.43
2018-10-03T02:43:58.073Z,5.00
2018-10-03T02:45:03.573Z,3.00
2018-10-03T02:46:09.035Z,4.40
2018-10-03T02:47:14.442Z,4.10
2018-10-03T02:48:20.041Z,4.00
2018-10-03T02:49:25.767Z,3.47
2018-10-03T02:50:31.228Z,4.70
2018-10-03T02:51:36.713Z,3.87
2018-10-03T02:52:42.202Z,3.47
2018-10-03T02:53:47.692Z,3.80
2018-10-03T02:54:53.368Z,4.33
2018-10-03T02:55:58.842Z,4.40
2018-10-03T02:57:04.316Z,3.47
2018-10-03T02:58:09.794Z,3.50
2018-10-03T02:59:15.322Z,4.20
2018-10-03T03:00:20.827Z,4.13
2018-10-03T03:01:26.355Z,4.33
2018-10-03T03:02:31.780Z,5.90
2018-10-03T03:03:37.323Z,4.63
2018-10-03T03:04:42.793Z,3.97
2018-10-03T03:05:48.252Z,5.07
2018-10-03T03:06:54.295Z,5.43
2018-10-03T03:07:59.873Z,4.20
2018-10-03T03:09:09.351Z,4.63
2018-10-03T03:10:14.770Z,2.67
2018-10-03T03:11:20.197Z,4.53
2018-10-03T03:12:25.670Z,4.53
2018-10-03T03:13:31.152Z,3.87
2018-10-03T03:14:36.744Z,3.73
2018-10-03T03:15:42.355Z,3.43
2018-10-03T03:16:47.938Z,3.07
2018-10-03T03:17:53.690Z,3.97
2018-10-03T03:18:59.384Z,4.80
2018-10-03T03:20:04.995Z,3.60
2018-10-03T03:21:10.538Z,3.43
2018-10-03T03:22:16.049Z,3.40
2018-10-03T03:23:21.608Z,3.77
2018-10-03T03:24:27.249Z,3.40
2018-10-03T03:25:32.717Z,3.90
2018-10-03T03:26:38.222Z,3.90
2018-10-03T03:27:43.753Z,3.20
2018-10-03T03:28:49.155Z,2.60
2018-10-03T03:29:54.622Z,3.77
2018-10-03T03:31:00.254Z,4.30
2018-10-03T03:32:05.887Z,3.30
2018-10-03T03:33:11.383Z,4.17
2018-10-03T03:34:16.883Z,4.90
2018-10-03T03:35:22.449Z,3.50
2018-10-03T03:36:27.877Z,3.60
2018-10-03T03:37:33.334Z,3.93
2018-10-03T03:38:38.733Z,3.60
2018-10-03T03:39:44.200Z,5.03
2018-10-03T03:40:49.663Z,3.50
2018-10-03T03:41:55.195Z,3.90
2018-10-03T03:43:00.718Z,3.47
2018-10-03T03:44:06.218Z,3.20
2018-10-03T03:45:11.651Z,4.70
2018-10-03T03:46:17.089Z,4.83
2018-10-03T03:47:22.708Z,4.13
2018-10-03T03:48:28.273Z,4.33
2018-10-03T03:49:33.862Z,3.00
2018-10-03T03:50:39.449Z,4.60
2018-10-03T03:51:44.900Z,3.10
2018-10-03T03:52:50.446Z,3.67
2018-10-03T03:53:56.081Z,3.23
2018-10-03T03:55:01.593Z,6.00
2018-10-03T03:56:07.086Z,3.73
2018-10-03T03:57:12.616Z,3.93
2018-10-03T03:58:18.297Z,4.47
2018-10-03T03:59:23.737Z,3.83
2018-10-03T04:00:29.433Z,3.70
2018-10-03T04:01:34.853Z,3.03
2018-10-03T04:02:40.314Z,3.20
2018-10-03T04:03:45.795Z,4.07
2018-10-03T04:04:51.271Z,5.00
2018-10-03T04:05:56.835Z,4.40
2018-10-03T04:07:02.346Z,3.97
2018-10-03T04:08:07.843Z,4.00
2018-10-03T04:09:14.657Z,4.60
2018-10-03T04:10:20.207Z,3.67
2018-10-03T04:11:25.895Z,3.10
2018-10-03T04:12:31.330Z,4.20
2018-10-03T04:13:36.824Z,3.33
2018-10-03T04:14:42.296Z,3.80
2018-10-03T04:15:47.860Z,4.23
2018-10-03T04:16:53.304Z,3.67
2018-10-03T04:17:58.801Z,3.90
2018-10-03T04:19:04.357Z,3.83
2018-10-03T04:20:09.840Z,4.10
2018-10-03T04:21:15.317Z,4.10
2018-10-03T04:22:20.897Z,5.60
2018-10-03T04:23:26.388Z,4.20
2018-10-03T04:24:31.924Z,3.27
2018-10-03T04:25:37.361Z,3.80
2018-10-03T04:26:42.854Z,4.37
2018-10-03T04:27:48.348Z,3.60
2018-10-03T04:28:53.795Z,4.03
2018-10-03T04:29:59.237Z,3.30
2018-10-03T04:31:04.766Z,3.50
2018-10-03T04:32:10.468Z,4.70
2018-10-03T04:33:15.908Z,3.63
2018-10-03T04:34:21.400Z,3.83
2018-10-03T04:35:27.132Z,3.73
2018-10-03T04:36:33.126Z,3.23
2018-10-03T04:37:38.640Z,3.10
2018-10-03T04:38:44.069Z,3.70
2018-10-03T04:39:49.539Z,4.23
2018-10-03T04:40:55.067Z,4.07
2018-10-03T04:42:00.479Z,4.30
2018-10-03T04:43:06.025Z,3.77
2018-10-03T04:44:11.478Z,3.60
2018-10-03T04:45:16.910Z,3.73
2018-10-03T04:46:23.061Z,3.73
2018-10-03T04:47:28.530Z,4.40
2018-10-03T04:48:33.980Z,3.53
2018-10-03T04:49:40.066Z,4.20
2018-10-03T04:50:45.584Z,3.53
2018-10-03T04:51:51.014Z,3.87
2018-10-03T04:52:56.541Z,5.10
2018-10-03T04:54:02.080Z,5.50
2018-10-03T04:55:07.726Z,5.13
2018-10-03T04:56:13.202Z,5.10
2018-10-03T04:57:18.932Z,3.50
2018-10-03T04:58:24.478Z,3.83
2018-10-03T04:59:29.950Z,4.40
2018-10-03T05:00:35.392Z,4.00
2018-10-03T05:01:40.818Z,3.57
2018-10-03T05:02:46.364Z,3.30
2018-10-03T05:03:51.809Z,3.23
2018-10-03T05:04:57.354Z,4.13
2018-10-03T05:06:02.870Z,3.27
2018-10-03T05:07:10.643Z,3.63
2018-10-03T05:08:18.056Z,3.70
2018-10-03T05:09:25.414Z,3.90
2018-10-03T05:10:33.046Z,3.43
2018-10-03T05:11:40.892Z,3.80
2018-10-03T05:12:47.907Z,3.40
2018-10-03T05:13:56.364Z,4.20
2018-10-03T05:15:03.693Z,4.80
2018-10-03T05:16:09.348Z,3.10
2018-10-03T05:17:15.054Z,5.20
2018-10-03T05:18:21.605Z,3.00
2018-10-03T05:19:28.918Z,3.20
2018-10-03T05:20:35.392Z,3.40
2018-10-03T05:21:41.345Z,3.23
2018-10-03T05:22:46.816Z,3.27
2018-10-03T05:23:52.485Z,4.60
2018-10-03T05:24:58.113Z,3.53
2018-10-03T05:26:03.572Z,3.90
2018-10-03T05:27:09.201Z,3.30
2018-10-03T05:28:14.778Z,3.30
2018-10-03T05:29:20.940Z,3.60
2018-10-03T05:30:26.400Z,3.53
2018-10-03T05:31:32.030Z,3.90
2018-10-03T05:32:37.508Z,3.07
2018-10-03T05:33:43.046Z,4.13
2018-10-03T05:34:48.528Z,4.63
2018-10-03T05:35:54.066Z,3.10
2018-10-03T05:36:59.505Z,3.67
2018-10-03T05:38:05.028Z,2.97
2018-10-03T05:39:12.548Z,3.90
2018-10-03T05:40:18.107Z,3.33
2018-10-03T05:41:23.766Z,4.30
2018-10-03T05:42:29.267Z,4.03
2018-10-03T05:43:34.797Z,5.33
2018-10-03T05:44:40.264Z,3.87
2018-10-03T05:45:45.774Z,4.23
2018-10-03T05:46:51.226Z,5.90
2018-10-03T05:47:56.773Z,3.47
2018-10-03T05:49:02.417Z,3.13
2018-10-03T05:50:08.058Z,3.40
2018-10-03T05:51:13.570Z,3.00
2018-10-03T05:52:18.995Z,3.50
2018-10-03T05:53:24.510Z,3.50
2018-10-03T05:54:30.172Z,3.20
2018-10-03T05:55:35.640Z,3.70
2018-10-03T05:56:41.165Z,3.00
2018-10-03T05:57:46.617Z,3.87
2018-10-03T05:58:52.188Z,2.63
2018-10-03T05:59:57.734Z,2.90
2018-10-03T06:01:03.435Z,3.00
2018-10-03T06:02:09.029Z,3.70
2018-10-03T06:03:14.514Z,2.97
2018-10-03T06:04:20.098Z,4.30
2018-10-03T06:05:25.613Z,4.00
2018-10-03T06:06:31.135Z,4.87
2018-10-03T06:07:36.577Z,2.80
2018-10-03T06:08:42.100Z,4.20
2018-10-03T06:09:47.584Z,3.30
2018-10-03T06:10:53.380Z,3.40
2018-10-03T06:11:58.957Z,3.40
2018-10-03T06:13:04.537Z,3.70
2018-10-03T06:14:10.418Z,4.10
2018-10-03T06:15:15.900Z,3.67
2018-10-03T06:16:21.417Z,3.30
2018-10-03T06:17:26.990Z,3.77
2018-10-03T06:18:32.658Z,3.40
2018-10-03T06:19:38.057Z,4.27
2018-10-03T06:20:43.558Z,3.50
2018-10-03T06:21:49.155Z,2.77
2018-10-03T06:22:54.802Z,4.43
2018-10-03T06:24:00.339Z,3.50
2018-10-03T06:25:06.049Z,3.17
2018-10-03T06:26:11.478Z,3.47
2018-10-03T06:27:17.019Z,4.43
2018-10-03T06:28:22.575Z,3.30
2018-10-03T06:29:28.054Z,4.40
2018-10-03T06:30:33.507Z,3.33
2018-10-03T06:31:38.916Z,4.03
2018-10-03T06:32:44.530Z,3.10
2018-10-03T06:33:50.106Z,3.90
2018-10-03T06:34:55.673Z,3.07
2018-10-03T06:36:01.257Z,3.23
2018-10-03T06:37:07.113Z,3.70
2018-10-03T06:38:12.579Z,3.17
2018-10-03T06:39:18.024Z,3.83
2018-10-03T06:40:23.552Z,3.23
2018-10-03T06:41:29.084Z,3.73
2018-10-03T06:42:34.485Z,3.30
2018-10-03T06:43:39.961Z,3.87
2018-10-03T06:44:45.398Z,3.90
2018-10-03T06:45:51.203Z,3.70
2018-10-03T06:46:56.589Z,3.87
2018-10-03T06:48:02.144Z,2.77
2018-10-03T06:49:07.820Z,3.00
2018-10-03T06:50:13.424Z,3.47
2018-10-03T06:51:18.909Z,4.07
2018-10-03T06:52:24.469Z,3.13
2018-10-03T06:53:30.004Z,2.83
2018-10-03T06:54:35.529Z,3.13
2018-10-03T06:55:41.017Z,3.83
2018-10-03T06:56:46.698Z,2.63
2018-10-03T06:57:52.400Z,3.90
2018-10-03T06:58:58.544Z,2.83
2018-10-03T07:00:04.195Z,3.43
2018-10-03T07:01:09.985Z,3.20
2018-10-03T07:02:15.469Z,3.77
2018-10-03T07:03:20.965Z,3.50
2018-10-03T07:04:26.510Z,3.37
2018-10-03T07:05:32.013Z,3.50
2018-10-03T07:06:37.578Z,4.00
2018-10-03T07:07:43.065Z,4.10
2018-10-03T07:08:48.560Z,3.60
2018-10-03T07:09:54.190Z,3.23
2018-10-03T07:10:59.721Z,3.10
2018-10-03T07:12:05.345Z,3.57
2018-10-03T07:13:10.785Z,2.73
2018-10-03T07:14:16.264Z,3.37
2018-10-03T07:15:21.766Z,3.30
2018-10-03T07:16:27.400Z,3.83
2018-10-03T07:17:33.009Z,3.03
2018-10-03T07:18:38.522Z,3.83
2018-10-03T07:19:44.018Z,3.20
2018-10-03T07:20:49.565Z,2.70
2018-10-03T07:21:55.128Z,2.97
2018-10-03T07:23:00.644Z,2.70
2018-10-03T07:24:06.179Z,2.30
2018-10-03T07:25:11.709Z,3.63
2018-10-03T07:26:17.198Z,3.13
2018-10-03T07:27:22.624Z,2.90
2018-10-03T07:28:28.403Z,2.50
2018-10-03T07:29:33.929Z,3.10
2018-10-03T07:30:39.569Z,2.83
2018-10-03T07:31:45.081Z,3.20
2018-10-03T07:32:50.584Z,3.23
2018-10-03T07:33:56.099Z,3.40
2018-10-03T07:35:01.585Z,6.47
2018-10-03T07:36:07.754Z,2.93
2018-10-03T07:37:13.208Z,2.97
2018-10-03T07:38:18.638Z,3.60
2018-10-03T07:39:24.202Z,4.63
2018-10-03T07:40:29.804Z,3.00
2018-10-03T07:41:35.324Z,3.30
2018-10-03T07:42:40.864Z,3.50
2018-10-03T07:43:46.385Z,3.40
2018-10-03T07:44:51.909Z,2.90
2018-10-03T07:45:57.304Z,3.70
2018-10-03T07:47:02.938Z,3.10
2018-10-03T07:48:08.574Z,3.97
2018-10-03T07:49:14.073Z,2.60
2018-10-03T07:50:19.506Z,3.20
2018-10-03T07:51:25.010Z,2.87
2018-10-03T07:52:30.690Z,2.50
2018-10-03T07:53:36.318Z,2.90
2018-10-03T07:54:41.713Z,3.03
2018-10-03T07:55:47.308Z,4.47
2018-10-03T07:56:52.758Z,2.97
2018-10-03T07:57:58.397Z,2.10
2018-10-03T07:59:03.912Z,3.07
2018-10-03T08:00:10.214Z,3.63
2018-10-03T08:01:15.709Z,3.03
2018-10-03T08:02:21.259Z,2.63
2018-10-03T08:03:26.761Z,2.90
2018-10-03T08:04:32.207Z,2.43
2018-10-03T08:05:37.786Z,3.40
2018-10-03T08:06:43.315Z,4.00
2018-10-03T08:07:48.908Z,2.77
2018-10-03T08:08:54.646Z,3.10
2018-10-03T08:10:00.197Z,3.40
2018-10-03T08:11:05.867Z,3.73
2018-10-03T08:12:11.436Z,2.47
2018-10-03T08:13:16.962Z,3.53
2018-10-03T08:14:22.432Z,3.40
2018-10-03T08:15:27.845Z,2.50
2018-10-03T08:16:33.522Z,3.03
2018-10-03T08:17:38.930Z,2.87
2018-10-03T08:18:44.361Z,2.33
2018-10-03T08:19:49.876Z,2.53
2018-10-03T08:20:55.533Z,2.50
2018-10-03T08:22:01.025Z,3.20
2018-10-03T08:23:06.629Z,2.80
2018-10-03T08:24:12.095Z,2.03
2018-10-03T08:25:17.622Z,3.30
2018-10-03T08:26:23.114Z,3.27
2018-10-03T08:27:28.641Z,3.80
2018-10-03T08:28:34.069Z,3.40
2018-10-03T08:29:39.541Z,3.90
2018-10-03T08:30:45.030Z,2.83
2018-10-03T08:31:50.607Z,3.17
2018-10-03T08:32:56.552Z,3.30
2018-10-03T08:34:01.930Z,2.70
2018-10-03T08:35:07.393Z,5.57
2018-10-03T08:36:12.899Z,3.80
2018-10-03T08:37:18.354Z,2.20
2018-10-03T08:38:23.983Z,2.97
2018-10-03T08:39:29.566Z,3.23
2018-10-03T08:40:35.082Z,2.30
2018-10-03T08:41:40.750Z,2.23
2018-10-03T08:42:46.315Z,2.30
2018-10-03T08:43:51.772Z,2.70
2018-10-03T08:44:57.270Z,3.57
2018-10-03T08:46:02.689Z,2.60
2018-10-03T08:47:08.450Z,2.47
2018-10-03T08:48:13.954Z,2.70
2018-10-03T08:49:19.401Z,3.57
2018-10-03T08:50:24.906Z,2.50
2018-10-03T08:51:30.365Z,3.07
2018-10-03T08:52:36.117Z,2.63
2018-10-03T08:53:41.652Z,3.30
2018-10-03T08:54:47.157Z,2.20
2018-10-03T08:55:52.756Z,3.90
2018-10-03T08:56:58.176Z,2.60
2018-10-03T08:58:03.825Z,3.00
2018-10-03T08:59:09.234Z,2.90
2018-10-03T09:00:14.957Z,3.07
2018-10-03T09:01:20.592Z,4.37
2018-10-03T09:02:26.188Z,2.60
2018-10-03T09:03:31.702Z,2.53
2018-10-03T09:04:37.508Z,2.80
2018-10-03T09:05:43.199Z,2.70
2018-10-03T09:06:48.645Z,3.70
2018-10-03T09:07:54.502Z,2.60
2018-10-03T09:08:59.969Z,2.10
2018-10-03T09:10:05.649Z,2.43
2018-10-03T09:11:11.180Z,2.50
2018-10-03T09:12:17.058Z,2.70
2018-10-03T09:13:22.742Z,2.60
2018-10-03T09:14:28.457Z,2.53
2018-10-03T09:15:34.130Z,3.70
2018-10-03T09:16:39.793Z,2.40
2018-10-03T09:17:45.177Z,2.43
2018-10-03T09:18:50.763Z,2.00
2018-10-03T09:19:56.382Z,2.87
2018-10-03T09:21:02.195Z,2.10
2018-10-03T09:22:08.100Z,1.70
2018-10-03T09:23:13.960Z,2.60
2018-10-03T09:24:19.442Z,2.87
2018-10-03T09:25:25.128Z,2.57
2018-10-03T09:26:30.901Z,2.47
2018-10-03T09:27:36.693Z,3.00
2018-10-03T09:28:42.237Z,2.63
2018-10-03T09:29:47.793Z,2.07
2018-10-03T09:30:53.285Z,2.63
2018-10-03T09:31:58.850Z,2.70
2018-10-03T09:33:04.326Z,3.30
2018-10-03T09:34:09.793Z,2.83
2018-10-03T09:35:15.287Z,2.30
2018-10-03T09:36:20.759Z,2.10
2018-10-03T09:37:26.342Z,3.27
2018-10-03T09:38:31.794Z,2.37
2018-10-03T09:39:37.323Z,2.50
2018-10-03T09:40:42.755Z,1.93
2018-10-03T09:41:48.278Z,2.13
2018-10-03T09:42:53.805Z,2.50
2018-10-03T09:43:59.243Z,2.63
2018-10-03T09:45:05.044Z,2.23
2018-10-03T09:46:10.578Z,2.20
2018-10-03T09:47:16.032Z,2.70
2018-10-03T09:48:21.546Z,2.40
2018-10-03T09:49:27.064Z,2.00
2018-10-03T09:50:32.609Z,2.30
2018-10-03T09:51:38.302Z,2.10
2018-10-03T09:52:43.712Z,2.00
2018-10-03T09:53:49.205Z,2.43
2018-10-03T09:54:54.759Z,2.20
2018-10-03T09:56:00.213Z,2.00
2018-10-03T09:57:06.015Z,1.83
2018-10-03T09:58:11.505Z,3.50
2018-10-03T09:59:17.055Z,2.10
2018-10-03T10:00:27.813Z,2.10
2018-10-03T10:01:34.208Z,2.00
2018-10-03T10:02:39.768Z,1.93
2018-10-03T10:03:45.272Z,2.53
2018-10-03T10:04:50.968Z,2.37
2018-10-03T10:05:56.438Z,2.30
2018-10-03T10:07:02.103Z,1.97
2018-10-03T10:08:07.692Z,2.70
2018-10-03T10:09:13.349Z,2.20
2018-10-03T10:10:19.400Z,2.10
2018-10-03T10:11:25.289Z,2.30
2018-10-03T10:12:31.012Z,2.33
2018-10-03T10:13:36.725Z,1.93
2018-10-03T10:14:42.414Z,3.13
2018-10-03T10:15:48.306Z,2.53
2018-10-03T10:16:54.019Z,2.47
2018-10-03T10:17:59.890Z,2.13
2018-10-03T10:19:05.658Z,2.50
2018-10-03T10:20:11.339Z,2.30
2018-10-03T10:21:17.084Z,2.67
2018-10-03T10:22:22.866Z,2.40
2018-10-03T10:23:28.598Z,2.37
2018-10-03T10:24:34.851Z,2.27
2018-10-03T10:25:40.890Z,2.00
2018-10-03T10:26:46.527Z,3.17
2018-10-03T10:27:52.314Z,1.60
2018-10-03T10:28:58.093Z,1.77
2018-10-03T10:30:03.509Z,2.00
2018-10-03T10:31:09.313Z,1.87
2018-10-03T10:32:14.860Z,2.40
2018-10-03T10:33:20.393Z,2.00
2018-10-03T10:34:26.125Z,3.07
2018-10-03T10:35:31.843Z,2.23
2018-10-03T10:36:37.284Z,1.80
2018-10-03T10:37:42.978Z,2.03
2018-10-03T10:38:48.629Z,2.03
2018-10-03T10:39:54.258Z,2.53
2018-10-03T10:40:59.954Z,2.73
2018-10-03T10:42:05.518Z,1.70
2018-10-03T10:43:11.039Z,2.10
2018-10-03T10:44:16.544Z,2.13
2018-10-03T10:45:22.115Z,2.20
2018-10-03T10:46:27.636Z,2.00
2018-10-03T10:47:33.144Z,1.60
2018-10-03T10:48:38.916Z,2.40
2018-10-03T10:49:44.570Z,2.50
2018-10-03T10:50:50.157Z,2.10
2018-10-03T10:51:55.765Z,1.67
2018-10-03T10:53:01.370Z,2.03
2018-10-03T10:54:07.019Z,1.63
2018-10-03T10:55:12.446Z,1.80
2018-10-03T10:56:17.893Z,1.40
2018-10-03T10:57:23.741Z,2.33
2018-10-03T10:58:29.247Z,1.73
2018-10-03T10:59:34.819Z,2.93
2018-10-03T11:00:40.337Z,2.30
2018-10-03T11:01:46.064Z,2.43
2018-10-03T11:02:51.753Z,2.33
2018-10-03T11:03:57.344Z,2.20
2018-10-03T11:05:03.051Z,1.53
2018-10-03T11:06:08.797Z,1.73
2018-10-03T11:07:14.428Z,1.60
2018-10-03T11:08:19.921Z,1.80
2018-10-03T11:09:25.413Z,1.60
2018-10-03T11:10:30.845Z,2.33
2018-10-03T11:11:36.350Z,2.00
2018-10-03T11:12:41.873Z,2.20
2018-10-03T11:13:47.484Z,2.20
2018-10-03T11:14:53.122Z,2.17
2018-10-03T11:15:58.696Z,2.10
2018-10-03T11:17:04.237Z,1.70
2018-10-03T11:18:09.677Z,1.97
2018-10-03T11:19:15.179Z,1.50
2018-10-03T11:20:20.601Z,2.33
2018-10-03T11:21:26.149Z,1.90
2018-10-03T11:22:31.606Z,2.00
2018-10-03T11:23:37.190Z,1.87
2018-10-03T11:24:42.826Z,2.93
2018-10-03T11:25:48.118Z,2.07
2018-10-03T11:26:53.666Z,2.03
2018-10-03T11:27:59.142Z,2.00
2018-10-03T11:29:04.617Z,1.80
2018-10-03T11:30:10.209Z,1.53
2018-10-03T11:31:15.723Z,2.17
2018-10-03T11:32:21.501Z,2.13
2018-10-03T11:33:26.989Z,2.50
2018-10-03T11:34:32.518Z,2.80
2018-10-03T11:35:38.131Z,2.17
2018-10-03T11:36:43.616Z,2.17
2018-10-03T11:37:49.150Z,2.30
2018-10-03T11:38:54.790Z,2.17
2018-10-03T11:40:00.443Z,3.13
2018-10-03T11:41:06.820Z,2.10
2018-10-03T11:42:12.496Z,2.00
2018-10-03T11:43:18.039Z,2.00
2018-10-03T11:44:23.635Z,2.27
2018-10-03T11:45:29.140Z,1.77
2018-10-03T11:46:34.569Z,1.77
2018-10-03T11:47:40.108Z,1.80
2018-10-03T11:48:45.568Z,1.93
2018-10-03T11:49:51.272Z,1.70
2018-10-03T11:50:56.811Z,2.20
2018-10-03T11:52:02.265Z,1.97
2018-10-03T11:53:08.173Z,2.10
2018-10-03T11:54:13.845Z,2.43
2018-10-03T11:55:19.480Z,2.10
2018-10-03T11:56:25.075Z,2.60
2018-10-03T11:57:30.692Z,2.03
2018-10-03T11:58:36.122Z,2.23
2018-10-03T11:59:41.730Z,1.83
2018-10-03T12:00:47.341Z,2.07
2018-10-03T12:01:53.336Z,1.70
2018-10-03T12:02:58.981Z,2.17
2018-10-03T12:04:04.622Z,2.00
2018-10-03T12:05:10.237Z,1.97
2018-10-03T12:06:15.895Z,2.00
2018-10-03T12:07:21.701Z,1.97
2018-10-03T12:08:27.316Z,3.17
2018-10-03T12:09:32.954Z,1.93
2018-10-03T12:10:38.661Z,2.17
2018-10-03T12:11:44.177Z,2.57
2018-10-03T12:12:49.728Z,1.70
2018-10-03T12:13:55.551Z,1.80
2018-10-03T12:15:01.383Z,2.33
2018-10-03T12:16:06.977Z,2.37
2018-10-03T12:17:12.489Z,1.90
2018-10-03T12:18:17.948Z,1.63
2018-10-03T12:19:23.539Z,2.30
2018-10-03T12:20:29.367Z,2.90
2018-10-03T12:21:35.157Z,1.80
2018-10-03T12:22:40.655Z,1.90
2018-10-03T12:23:46.210Z,1.40
2018-10-03T12:24:51.832Z,1.40
2018-10-03T12:25:57.437Z,1.90
2018-10-03T12:27:02.855Z,1.90
2018-10-03T12:28:08.382Z,1.60
2018-10-03T12:29:13.940Z,1.97
2018-10-03T12:30:19.473Z,2.17
2018-10-03T12:31:25.190Z,1.50
2018-10-03T12:32:30.754Z,2.10
2018-10-03T12:33:36.235Z,1.77
2018-10-03T12:34:41.864Z,1.53
2018-10-03T12:35:47.367Z,1.93
2018-10-03T12:36:52.852Z,1.70
2018-10-03T12:37:58.298Z,2.00
2018-10-03T12:39:04.027Z,1.50
2018-10-03T12:40:09.649Z,3.70
2018-10-03T12:41:15.287Z,1.20
2018-10-03T12:42:20.809Z,1.73
2018-10-03T12:43:26.602Z,2.03
2018-10-03T12:44:32.537Z,1.93
2018-10-03T12:45:38.245Z,2.13
2018-10-03T12:46:44.019Z,1.40
2018-10-03T12:47:49.862Z,1.97
2018-10-03T12:48:55.802Z,2.33
2018-10-03T12:50:01.457Z,1.60
2018-10-03T12:51:07.089Z,1.33
2018-10-03T12:52:12.835Z,1.67
2018-10-03T12:53:18.332Z,1.30
2018-10-03T12:54:23.938Z,1.87
2018-10-03T12:55:29.456Z,2.03
2018-10-03T12:56:34.965Z,2.10
2018-10-03T12:57:40.471Z,1.70
2018-10-03T12:58:46.021Z,2.00
2018-10-03T12:59:51.644Z,1.67
2018-10-03T13:00:57.186Z,2.50
2018-10-03T13:02:02.656Z,2.00
2018-10-03T13:03:08.171Z,1.50
2018-10-03T13:04:14.112Z,1.60
2018-10-03T13:05:19.679Z,3.30
2018-10-03T13:06:25.281Z,1.57
2018-10-03T13:07:30.745Z,1.50
2018-10-03T13:08:36.248Z,1.93
2018-10-03T13:09:41.849Z,1.43
2018-10-03T13:10:47.505Z,1.27
2018-10-03T13:11:53.286Z,1.20
2018-10-03T13:12:58.706Z,2.03
2018-10-03T13:14:04.221Z,1.57
2018-10-03T13:15:09.738Z,1.33
2018-10-03T13:16:15.422Z,1.70
2018-10-03T13:17:20.984Z,1.67
2018-10-03T13:18:26.697Z,2.07
2018-10-03T13:19:32.228Z,1.43
2018-10-03T13:20:37.773Z,1.40
2018-10-03T13:21:43.440Z,1.90
2018-10-03T13:22:49.117Z,1.50
2018-10-03T13:23:54.727Z,2.57
2018-10-03T13:25:00.242Z,1.77
2018-10-03T13:26:05.979Z,1.83
2018-10-03T13:27:11.518Z,1.40
2018-10-03T13:28:17.183Z,1.33
2018-10-03T13:29:22.761Z,0.90
2018-10-03T13:30:28.232Z,1.30
2018-10-03T13:31:33.820Z,1.53
2018-10-03T13:32:39.515Z,1.67
2018-10-03T13:33:45.174Z,1.40
2018-10-03T13:34:50.761Z,1.70
2018-10-03T13:35:56.547Z,2.13
2018-10-03T13:37:02.032Z,1.00
2018-10-03T13:38:07.830Z,1.20
2018-10-03T13:39:13.481Z,1.63
2018-10-03T13:40:19.191Z,1.50
2018-10-03T13:41:24.884Z,1.47
2018-10-03T13:42:30.886Z,2.10
2018-10-03T13:43:36.531Z,1.57
2018-10-03T13:44:42.496Z,1.43
2018-10-03T13:45:48.116Z,1.40
2018-10-03T13:46:53.705Z,2.20
2018-10-03T13:47:59.272Z,1.40
2018-10-03T13:49:04.732Z,2.20
2018-10-03T13:50:10.315Z,1.53
2018-10-03T13:51:15.919Z,1.50
2018-10-03T13:52:21.632Z,1.70
2018-10-03T13:53:27.039Z,1.80
2018-10-03T13:54:32.429Z,1.83
2018-10-03T13:55:38.014Z,1.60
2018-10-03T13:56:43.567Z,1.80
2018-10-03T13:57:49.219Z,1.53
2018-10-03T13:58:54.656Z,1.70
2018-10-03T14:00:00.603Z,2.17
2018-10-03T14:01:06.102Z,2.27
2018-10-03T14:02:11.597Z,1.83
2018-10-03T14:03:17.238Z,2.07
2018-10-03T14:04:22.660Z,2.03
2018-10-03T14:05:28.269Z,1.63
2018-10-03T14:06:33.801Z,2.00
2018-10-03T14:07:39.457Z,1.73
2018-10-03T14:08:44.986Z,1.47
2018-10-03T14:09:50.613Z,2.17
2018-10-03T14:10:56.233Z,1.60
2018-10-03T14:12:01.725Z,1.90
2018-10-03T14:13:07.381Z,2.47
2018-10-03T14:14:12.909Z,1.70
2018-10-03T14:15:18.674Z,1.57
2018-10-03T14:16:24.083Z,1.87
2018-10-03T14:17:29.553Z,1.87
2018-10-03T14:18:35.084Z,1.90
2018-10-03T14:19:40.596Z,2.57
2018-10-03T14:20:46.025Z,1.37
2018-10-03T14:21:51.841Z,1.50
2018-10-03T14:22:57.366Z,1.80
2018-10-03T14:24:02.949Z,2.10
2018-10-03T14:25:08.517Z,2.67
2018-10-03T14:26:13.985Z,1.63
2018-10-03T14:27:19.536Z,1.80
2018-10-03T14:28:24.952Z,2.07
2018-10-03T14:29:30.382Z,2.03
2018-10-03T14:30:35.917Z,1.90
2018-10-03T14:31:41.385Z,1.40
2018-10-03T14:32:46.979Z,1.73